Manitouwadge, Canada
Current Conditions -  °F | °C
As of 5:00 PM on Monday 20 Oct 2014 (Local Time) from CYGQ Reporting Station
Overcast Overcast  
Wind Chill: 30°   Ceiling: 1200
Heat Index: 36°   Visibility: 8mi
Dew Point: 34°   Wind: 7mph
Humidity: 93%   Direction: 30°NNE
Pressure: 30"   Gusts: NA
Location:  49.13°N, 85.8°W
Report Text: CYGQ 202100Z 03006KT 8SM OVC012 02/01 A3000 RMK SC8 CIG RAGSLP176
Loading
Personal Weather Stations






























Interactive Weather Map
Tropical Storm Tracking
New forecast layout! Learn more

10-Day Weather Forecast

Advertisements
Track Severe Weather on mobile